Time;durP1;ratioP1;P1;durP2;ratioP2;P2;SDS_P1;SDS_P2;PMS_P1;PMS_P2;Temp;Humidity;BMP_temperature;BMP_pressure;BME280_temperature;BME280_humidity;BME280_pressure;Samples;Min_cycle;Max_cycle;Signal;HPM_P1;HPM_P2
2023/03/04 00:00:55;;;;;;;;;;;;;;;1.05;76.80;98839.06;7384299;19;19946;-71
2023/03/04 00:03:24;;;;;;;;;;;;;;;1.03;76.81;98846.13;7381375;19;19941;-71
2023/03/04 00:06:00;;;;;;;;;;;;;;;1.04;76.98;98844.34;7379159;19;19921;-71
2023/03/04 00:08:27;;;;;;;;;;;;;;;1.00;76.96;98845.41;7385412;19;19926;-71
2023/03/04 00:10:53;;;;;;;;;;;;;;;0.96;76.85;98839.56;7390140;19;19914;-72
2023/03/04 00:13:21;;;;;;;;;;;;;;;0.93;76.90;98846.69;7385135;19;19945;-71
2023/03/04 00:15:47;;;;;;;;;;;;;;;0.93;76.95;98846.69;7383473;19;19926;-71
2023/03/04 00:18:14;;;;;;;;;;;;;;;0.92;77.08;98850.22;7383051;19;20326;-71
2023/03/04 00:20:40;;;;;;;;;;;;;;;0.90;77.16;98845.09;7386983;19;20329;-71
2023/03/04 00:23:07;;;;;;;;;;;;;;;0.87;77.07;98846.13;7388263;19;19922;-71
2023/03/04 00:25:34;;;;;;;;;;;;;;;0.88;77.10;98853.00;7383227;19;19914;-71
2023/03/04 00:28:00;;;;;;;;;;;;;;;0.83;76.95;98852.41;7392456;19;19926;-72
2023/03/04 00:30:27;;;;;;;;;;;;;;;0.84;77.31;98848.03;7383048;19;19922;-71
2023/03/04 00:32:53;;;;;;;;;;;;;;;0.83;77.12;98852.41;7384995;19;19919;-72
2023/03/04 00:35:20;;;;;;;;;;;;;;;0.84;76.98;98853.22;7378913;19;19945;-71
2023/03/04 00:37:47;;;;;;;;;;;;;;;0.79;77.15;98853.50;7383177;19;19927;-71
2023/03/04 00:40:14;;;;;;;;;;;;;;;0.76;77.20;98856.25;7382590;19;19977;-71
2023/03/04 00:42:41;;;;;;;;;;;;;;;0.73;77.42;98856.41;7385249;19;19919;-71
2023/03/04 00:45:08;;;;;;;;;;;;;;;0.72;77.27;98854.75;7383293;19;19918;-70
2023/03/04 00:47:35;;;;;;;;;;;;;;;0.69;77.16;98846.28;7385587;19;20311;-70
2023/03/04 00:50:02;;;;;;;;;;;;;;;0.71;77.43;98849.59;7386676;19;19926;-70
2023/03/04 00:52:28;;;;;;;;;;;;;;;0.68;77.24;98848.00;7379037;19;19945;-70
2023/03/04 00:54:55;;;;;;;;;;;;;;;0.64;77.35;98851.72;7383902;19;19925;-70
2023/03/04 00:57:21;;;;;;;;;;;;;;;0.62;77.43;98849.19;7383429;19;20569;-71
2023/03/04 00:59:48;;;;;;;;;;;;;;;0.63;77.39;98855.22;7385076;19;19978;-70
2023/03/04 01:02:15;;;;;;;;;;;;;;;0.59;77.55;98849.34;7386048;19;19922;-70
2023/03/04 01:04:41;;;;;;;;;;;;;;;0.58;77.43;98844.22;7383830;19;19918;-70
2023/03/04 01:07:08;;;;;;;;;;;;;;;0.58;77.53;98852.03;7385467;19;19927;-70
2023/03/04 01:09:35;;;;;;;;;;;;;;;0.58;77.44;98846.81;7382261;19;19922;-70
2023/03/04 01:12:01;;;;;;;;;;;;;;;0.52;77.79;98841.94;7388021;19;19921;-71
2023/03/04 01:14:28;;;;;;;;;;;;;;;0.52;77.77;98834.13;7381109;19;19938;-71
2023/03/04 01:16:55;;;;;;;;;;;;;;;0.52;77.63;98837.56;7386457;19;19974;-70
2023/03/04 01:19:21;;;;;;;;;;;;;;;0.52;77.55;98837.56;7384004;19;19910;-70
2023/03/04 01:21:48;;;;;;;;;;;;;;;0.48;77.45;98835.22;7386522;19;19966;-72
2023/03/04 01:24:15;;;;;;;;;;;;;;;0.46;77.77;98834.47;7381590;19;19911;-72
2023/03/04 01:26:41;;;;;;;;;;;;;;;0.44;77.77;98834.53;7383124;19;19918;-71
2023/03/04 01:29:08;;;;;;;;;;;;;;;0.42;77.74;98833.75;7385105;19;20492;-72
2023/03/04 01:31:34;;;;;;;;;;;;;;;0.38;77.81;98829.66;7382308;19;19921;-71
2023/03/04 01:34:01;;;;;;;;;;;;;;;0.38;77.91;98832.25;7384964;19;20143;-71
2023/03/04 01:36:27;;;;;;;;;;;;;;;0.34;77.99;98828.13;7386197;19;19930;-71
2023/03/04 01:38:54;;;;;;;;;;;;;;;0.33;77.82;98818.66;7384258;19;20359;-71
2023/03/04 01:41:23;;;;;;;;;;;;;;;0.31;77.88;98826.53;7377489;19;19926;-71
2023/03/04 01:43:50;;;;;;;;;;;;;;;0.28;nan;98824.09;7377964;19;19918;-72
2023/03/04 01:46:16;;;;;;;;;;;;;;;0.27;77.71;98824.19;7381403;19;19914;-72
2023/03/04 01:48:43;;;;;;;;;;;;;;;0.22;78.11;98824.41;7384531;19;19934;-72
2023/03/04 01:51:11;;;;;;;;;;;;;;;0.23;78.11;98828.69;7386888;19;19926;-71
2023/03/04 01:53:39;;;;;;;;;;;;;;;0.21;78.10;98831.38;7381091;19;19944;-71
2023/03/04 01:56:18;;;;;;;;;;;;;;;0.22;78.16;98829.63;7384445;19;20410;-70
2023/03/04 01:58:49;;;;;;;;;;;;;;;0.20;78.17;98832.28;7381434;19;19922;-71
2023/03/04 02:01:15;;;;;;;;;;;;;;;0.19;77.99;98835.81;7381653;19;19918;-71
2023/03/04 02:03:42;;;;;;;;;;;;;;;0.19;78.06;98832.38;7381920;19;19932;-71
2023/03/04 02:06:08;;;;;;;;;;;;;;;0.17;78.14;98829.84;7386999;19;20403;-72
2023/03/04 02:08:35;;;;;;;;;;;;;;;0.16;77.95;98824.75;7383708;19;19918;-71
2023/03/04 02:11:01;;;;;;;;;;;;;;;0.13;78.07;98827.47;7391982;19;19914;-71
2023/03/04 02:13:28;;;;;;;;;;;;;;;0.12;78.12;98820.59;7387499;19;20366;-71
2023/03/04 02:15:55;;;;;;;;;;;;;;;0.12;78.14;98823.22;7390248;19;20641;-71
2023/03/04 02:18:22;;;;;;;;;;;;;;;0.10;78.23;98825.03;7385808;19;19929;-71
2023/03/04 02:20:59;;;;;;;;;;;;;;;0.08;78.27;98819.06;7391052;19;20240;-72
2023/03/04 02:23:35;;;;;;;;;;;;;;;0.07;78.29;98820.00;7384706;19;20469;-71
2023/03/04 02:26:01;;;;;;;;;;;;;;;0.08;78.13;98826.88;7391621;19;19937;-71
2023/03/04 02:28:28;;;;;;;;;;;;;;;0.07;78.24;98820.84;7387264;19;19918;-71
2023/03/04 02:30:54;;;;;;;;;;;;;;;0.04;78.55;98817.56;7385266;19;20625;-71
2023/03/04 02:33:21;;;;;;;;;;;;;;;0.04;78.21;98814.97;7385184;19;19919;-71
2023/03/04 02:35:47;;;;;;;;;;;;;;;-0.01;78.26;98818.63;7384982;19;19929;-71
2023/03/04 02:38:14;;;;;;;;;;;;;;;-0.02;78.20;98816.97;7389063;19;19937;-71
2023/03/04 02:40:41;;;;;;;;;;;;;;;-0.03;78.16;98815.28;7391844;19;19929;-71
2023/03/04 02:43:09;;;;;;;;;;;;;;;-0.05;78.18;98816.28;7391091;19;20558;-73
2023/03/04 02:45:37;;;;;;;;;;;;;;;-0.07;78.16;98818.94;7383095;19;22894;-72
2023/03/04 02:48:05;;;;;;;;;;;;;;;-0.09;78.24;98820.78;7387883;19;20268;-71
2023/03/04 02:50:36;;;;;;;;;;;;;;;-0.09;78.33;98818.19;7384209;19;19919;-71
2023/03/04 02:53:03;;;;;;;;;;;;;;;-0.13;78.39;98824.47;7388075;19;20300;-71
2023/03/04 02:55:31;;;;;;;;;;;;;;;-0.14;78.33;98822.78;7384778;19;20315;-71
2023/03/04 02:57:58;;;;;;;;;;;;;;;-0.14;78.34;98822.78;7390924;19;19925;-72
2023/03/04 03:00:24;;;;;;;;;;;;;;;-0.20;78.39;98823.09;7384922;19;19922;-71
2023/03/04 03:02:51;;;;;;;;;;;;;;;-0.22;78.63;98827.53;7387234;19;20581;-71
2023/03/04 03:05:18;;;;;;;;;;;;;;;-0.24;78.60;98819.81;7384078;19;20494;-71
2023/03/04 03:07:45;;;;;;;;;;;;;;;-0.29;78.67;98828.75;7387694;19;20379;-71
2023/03/04 03:10:12;;;;;;;;;;;;;;;-0.30;78.73;98827.91;7387435;19;19978;-71
2023/03/04 03:12:39;;;;;;;;;;;;;;;-0.29;78.66;98831.34;7384799;19;19927;-71
2023/03/04 03:15:06;;;;;;;;;;;;;;;-0.32;78.65;98827.13;7390593;19;19945;-71
2023/03/04 03:17:32;;;;;;;;;;;;;;;-0.32;78.72;98829.72;7387423;19;19918;-72
2023/03/04 03:19:59;;;;;;;;;;;;;;;-0.34;78.79;98829.00;7386014;19;19915;-71
2023/03/04 03:22:25;;;;;;;;;;;;;;;-0.34;78.88;98825.53;7386279;19;19926;-71
2023/03/04 03:24:52;;;;;;;;;;;;;;;-0.35;78.97;98824.69;7385410;19;19926;-71
2023/03/04 03:27:18;;;;;;;;;;;;;;;-0.33;79.02;98824.63;7387210;19;19930;-71
2023/03/04 03:29:45;;;;;;;;;;;;;;;-0.35;78.85;98823.84;7387126;19;19922;-71
2023/03/04 03:32:11;;;;;;;;;;;;;;;-0.38;78.88;98824.00;7391082;19;20485;-71
2023/03/04 03:34:38;;;;;;;;;;;;;;;-0.40;78.73;98816.28;7385630;19;19918;-71
2023/03/04 03:37:07;;;;;;;;;;;;;;;-0.44;78.82;98814.75;7387125;19;20887;-71
2023/03/04 03:39:33;;;;;;;;;;;;;;;-0.44;78.87;98819.97;7382548;19;19914;-71
2023/03/04 03:42:00;;;;;;;;;;;;;;;-0.45;78.91;98819.13;7391150;19;19936;-71
2023/03/04 03:44:26;;;;;;;;;;;;;;;-0.46;78.81;98821.78;7385180;19;20242;-71
2023/03/04 03:46:53;;;;;;;;;;;;;;;-0.50;78.86;98821.13;7388927;19;20278;-71
2023/03/04 03:49:20;;;;;;;;;;;;;;;-0.53;78.81;98807.41;7388469;19;19923;-71
2023/03/04 03:51:47;;;;;;;;;;;;;;;-0.60;79.85;98819.03;7388962;19;19922;-71
2023/03/04 03:54:13;;;;;;;;;;;;;;;-0.49;79.98;98814.97;7384959;19;19963;-71
2023/03/04 03:56:40;;;;;;;;;;;;;;;-0.46;79.82;98820.03;7384916;19;20274;-71
2023/03/04 03:59:06;;;;;;;;;;;;;;;-0.47;79.72;98815.75;7388015;19;19944;-71
2023/03/04 04:01:33;;;;;;;;;;;;;;;-0.54;80.05;98816.97;7388146;19;20618;-71
2023/03/04 04:04:00;;;;;;;;;;;;;;;-0.50;80.00;98817.66;7390060;19;19970;-71
2023/03/04 04:06:26;;;;;;;;;;;;;;;-0.61;80.25;98822.53;7386617;19;20507;-71
2023/03/04 04:08:53;;;;;;;;;;;;;;;-0.55;80.82;98823.09;7389112;19;19922;-71
2023/03/04 04:11:20;;;;;;;;;;;;;;;-0.56;80.91;98820.56;7386174;19;20416;-71
2023/03/04 04:13:46;;;;;;;;;;;;;;;-0.50;80.89;98818.50;7384755;19;19930;-71
2023/03/04 04:16:13;;;;;;;;;;;;;;;-0.46;80.36;98825.22;7389176;19;19926;-71
2023/03/04 04:18:40;;;;;;;;;;;;;;;-0.53;80.44;98821.25;7384970;19;20559;-71
2023/03/04 04:21:06;;;;;;;;;;;;;;;-0.48;80.21;98824.44;7389894;19;20460;-71
2023/03/04 04:23:33;;;;;;;;;;;;;;;-0.48;79.90;98829.66;7388355;19;20707;-71
2023/03/04 04:25:59;;;;;;;;;;;;;;;-0.55;79.82;98833.50;7385610;19;20266;-71
2023/03/04 04:28:26;;;;;;;;;;;;;;;-0.63;80.08;98830.44;7384125;19;19946;-72
2023/03/04 04:30:52;;;;;;;;;;;;;;;-0.62;80.58;98829.50;7383363;19;19919;-71
2023/03/04 04:33:19;;;;;;;;;;;;;;;-0.57;80.34;98824.91;7388788;19;19986;-71
2023/03/04 04:35:46;;;;;;;;;;;;;;;-0.58;80.11;98822.38;7387020;19;19932;-71
2023/03/04 04:38:12;;;;;;;;;;;;;;;-0.60;80.17;98826.84;7389742;19;19959;-71
2023/03/04 04:40:39;;;;;;;;;;;;;;;-0.74;80.41;98833.53;7382810;19;19945;-71
2023/03/04 04:43:05;;;;;;;;;;;;;;;-0.64;80.59;98836.50;7390930;19;19922;-71
2023/03/04 04:45:32;;;;;;;;;;;;;;;-0.60;80.25;98830.28;7380561;19;19925;-71
2023/03/04 04:47:59;;;;;;;;;;;;;;;-0.62;79.98;98826.91;7383408;19;19923;-71
2023/03/04 04:50:25;;;;;;;;;;;;;;;-0.78;79.92;98823.38;7383390;19;19914;-71
2023/03/04 04:52:52;;;;;;;;;;;;;;;-0.75;80.20;98836.19;7385276;19;19937;-71
2023/03/04 04:55:18;;;;;;;;;;;;;;;-0.81;79.96;98828.72;7386445;19;19926;-71
2023/03/04 04:57:45;;;;;;;;;;;;;;;-0.84;79.53;98832.28;7383155;19;19930;-71
2023/03/04 05:00:12;;;;;;;;;;;;;;;-0.83;79.59;98831.38;7386111;19;19926;-71
2023/03/04 05:02:39;;;;;;;;;;;;;;;-0.84;79.75;98828.84;7379690;19;19930;-71
2023/03/04 05:05:06;;;;;;;;;;;;;;;-0.89;79.46;98837.69;7383387;19;19922;-71
2023/03/04 05:07:32;;;;;;;;;;;;;;;-0.94;79.18;98834.47;7384034;19;19945;-71
2023/03/04 05:09:59;;;;;;;;;;;;;;;-1.01;79.29;98840.03;7384923;19;19946;-71
2023/03/04 05:12:25;;;;;;;;;;;;;;;-0.99;79.31;98838.22;7383285;19;20374;-71
2023/03/04 05:14:52;;;;;;;;;;;;;;;-0.98;79.36;98845.06;7385204;19;19918;-71
2023/03/04 05:17:19;;;;;;;;;;;;;;;-1.03;79.25;98845.28;7387480;19;19926;-71
2023/03/04 05:19:45;;;;;;;;;;;;;;;-1.06;79.43;98849.78;7380902;19;19926;-71
2023/03/04 05:22:12;;;;;;;;;;;;;;;-1.08;79.23;98847.25;7386647;19;19918;-71
2023/03/04 05:24:39;;;;;;;;;;;;;;;-1.11;79.04;98856.06;7381270;19;19986;-71
2023/03/04 05:27:05;;;;;;;;;;;;;;;-1.14;79.17;98844.94;7387899;19;19919;-71
2023/03/04 05:29:32;;;;;;;;;;;;;;;-1.18;79.29;98852.06;7383769;19;19918;-71
2023/03/04 05:31:59;;;;;;;;;;;;;;;-1.20;79.39;98850.44;7386896;19;19919;-71
2023/03/04 05:34:25;;;;;;;;;;;;;;;-1.23;79.49;98853.19;7381420;19;19919;-71
2023/03/04 05:36:52;;;;;;;;;;;;;;;-1.23;79.33;98854.00;7384428;19;19953;-71
2023/03/04 05:39:18;;;;;;;;;;;;;;;-1.23;79.36;98855.78;7386920;19;19926;-71
2023/03/04 05:41:45;;;;;;;;;;;;;;;-1.25;79.36;98862.78;7382033;19;19918;-71
2023/03/04 05:44:11;;;;;;;;;;;;;;;-1.26;79.49;98853.28;7386094;19;19943;-71
2023/03/04 05:46:38;;;;;;;;;;;;;;;-1.27;79.44;98859.41;7382547;19;19927;-71
2023/03/04 05:49:04;;;;;;;;;;;;;;;-1.30;79.41;98856.94;7385763;19;20394;-71
2023/03/04 05:51:31;;;;;;;;;;;;;;;-1.30;79.51;98862.16;7384055;19;19914;-71
2023/03/04 05:53:57;;;;;;;;;;;;;;;-1.32;79.53;98862.19;7380925;19;19941;-71
2023/03/04 05:56:24;;;;;;;;;;;;;;;-1.33;79.64;98863.13;7388438;19;20342;-71
2023/03/04 05:58:51;;;;;;;;;;;;;;;-1.31;79.53;98860.47;7384827;19;19970;-71
2023/03/04 06:01:17;;;;;;;;;;;;;;;-1.30;79.42;98856.94;7387095;19;19941;-71
2023/03/04 06:03:44;;;;;;;;;;;;;;;-1.34;79.47;98867.47;7381864;19;19926;-71
2023/03/04 06:06:10;;;;;;;;;;;;;;;-1.33;79.37;98863.13;7382414;19;19937;-71
2023/03/04 06:08:37;;;;;;;;;;;;;;;-1.34;79.46;98864.03;7377321;19;19929;-71
2023/03/04 06:11:04;;;;;;;;;;;;;;;-1.36;79.35;98863.28;7383328;19;20167;-72
2023/03/04 06:13:31;;;;;;;;;;;;;;;-1.36;79.33;98871.88;7383969;19;19922;-71
2023/03/04 06:15:58;;;;;;;;;;;;;;;-1.37;79.45;98871.94;7383519;19;19930;-72
2023/03/04 06:18:25;;;;;;;;;;;;;;;-1.39;79.50;98872.03;7386542;19;19925;-72
2023/03/04 06:20:55;;;;;;;;;;;;;;;-1.37;79.48;98877.13;7379562;19;19989;-71
2023/03/04 06:23:21;;;;;;;;;;;;;;;-1.33;79.49;98883.88;7385133;19;19918;-71
2023/03/04 06:25:50;;;;;;;;;;;;;;;-1.33;79.63;98882.13;7376716;19;20017;-71
2023/03/04 06:28:17;;;;;;;;;;;;;;;-1.31;79.91;98889.03;7384191;19;19970;-71
2023/03/04 06:30:44;;;;;;;;;;;;;;;-1.29;79.98;98898.44;7380586;19;19925;-71
2023/03/04 06:33:10;;;;;;;;;;;;;;;-1.25;80.06;98893.94;7385844;19;19919;-71
2023/03/04 06:35:37;;;;;;;;;;;;;;;-1.23;80.28;98900.75;7380497;19;19922;-71
2023/03/04 06:38:04;;;;;;;;;;;;;;;-1.18;80.48;98901.38;7383962;19;20639;-71
2023/03/04 06:40:30;;;;;;;;;;;;;;;-1.09;80.77;98909.66;7380016;19;19922;-71
2023/03/04 06:42:57;;;;;;;;;;;;;;;-1.01;81.00;98907.56;7382379;19;19914;-72
2023/03/04 06:45:23;;;;;;;;;;;;;;;-0.88;81.33;98909.50;7377143;19;20470;-72
2023/03/04 06:47:50;;;;;;;;;;;;;;;-0.80;81.69;98908.31;7379324;19;19987;-72
2023/03/04 06:50:16;;;;;;;;;;;;;;;-0.64;81.92;98911.88;7383809;19;19938;-72
2023/03/04 06:52:43;;;;;;;;;;;;;;;-0.55;81.89;98903.66;7380002;19;19949;-73
2023/03/04 06:55:11;;;;;;;;;;;;;;;-0.42;82.16;98911.72;7385021;19;19929;-72
2023/03/04 06:57:38;;;;;;;;;;;;;;;-0.35;81.96;98907.03;7386899;19;19918;-72
2023/03/04 07:00:05;;;;;;;;;;;;;;;-0.22;82.27;98918.53;7384516;19;20589;-71
2023/03/04 07:02:31;;;;;;;;;;;;;;;-0.11;82.30;98912.81;7385303;19;19937;-71
2023/03/04 07:04:58;;;;;;;;;;;;;;;-0.07;81.73;98914.34;7385333;19;20374;-70
2023/03/04 07:07:25;;;;;;;;;;;;;;;-0.02;81.92;98915.81;7388934;19;19915;-71
2023/03/04 07:09:51;;;;;;;;;;;;;;;0.09;82.08;98920.47;7383398;19;19926;-71
2023/03/04 07:12:18;;;;;;;;;;;;;;;0.16;82.10;98923.63;7389533;19;19915;-71
2023/03/04 07:14:44;;;;;;;;;;;;;;;0.25;81.86;98925.75;7374704;19;19927;-71
2023/03/04 07:17:11;;;;;;;;;;;;;;;0.22;81.78;98923.31;7386671;19;19943;-71
2023/03/04 07:19:38;;;;;;;;;;;;;;;0.26;81.66;98931.78;7383977;19;19915;-71
2023/03/04 07:22:04;;;;;;;;;;;;;;;0.32;81.61;98934.94;7384514;19;19926;-71
2023/03/04 07:24:31;;;;;;;;;;;;;;;0.42;81.78;98945.69;7385204;19;19936;-71
2023/03/04 07:26:57;;;;;;;;;;;;;;;0.19;81.01;98936.47;7388065;19;19941;-72
2023/03/04 07:29:24;;;;;;;;;;;;;;;0.41;81.39;98939.66;7390467;19;19922;-71
2023/03/04 07:31:50;;;;;;;;;;;;;;;0.59;81.84;98943.09;7384897;19;19922;-72
2023/03/04 07:34:19;;;;;;;;;;;;;;;0.46;80.49;98942.03;7387177;19;20386;-71
2023/03/04 07:36:45;;;;;;;;;;;;;;;0.30;80.67;98943.72;7386858;19;19918;-72
2023/03/04 07:39:12;;;;;;;;;;;;;;;0.37;80.33;98942.47;7391562;19;19922;-71
2023/03/04 07:41:39;;;;;;;;;;;;;;;0.48;80.47;98949.78;7387729;19;19922;-71
2023/03/04 07:44:06;;;;;;;;;;;;;;;0.60;80.55;98949.13;7387911;19;20701;-71
2023/03/04 07:46:32;;;;;;;;;;;;;;;0.61;80.21;98956.03;7385652;19;19937;-70
2023/03/04 07:48:59;;;;;;;;;;;;;;;0.61;80.16;98959.47;7377657;19;19929;-71
2023/03/04 07:51:26;;;;;;;;;;;;;;;0.63;79.97;98968.06;7386131;19;20329;-71
2023/03/04 07:53:54;;;;;;;;;;;;;;;0.61;79.72;98961.25;7381442;19;20441;-71
2023/03/04 07:56:22;;;;;;;;;;;;;;;0.71;79.57;98961.59;7390479;19;20295;-71
2023/03/04 07:58:52;;;;;;;;;;;;;;;0.80;79.25;98964.56;7385484;19;19957;-71
2023/03/04 08:01:20;;;;;;;;;;;;;;;0.69;79.60;98961.69;7388784;19;20267;-71
2023/03/04 08:03:46;;;;;;;;;;;;;;;0.58;79.20;98963.97;7381804;19;19910;-71
2023/03/04 08:06:14;;;;;;;;;;;;;;;0.77;79.23;98967.34;7385176;19;19926;-71
2023/03/04 08:08:41;;;;;;;;;;;;;;;0.67;78.90;98960.91;7384351;19;20277;-71
2023/03/04 08:11:12;;;;;;;;;;;;;;;0.72;78.69;98971.09;7387483;19;20287;-71
2023/03/04 08:13:38;;;;;;;;;;;;;;;0.84;78.75;98973.91;7384099;19;19922;-72
2023/03/04 08:16:05;;;;;;;;;;;;;;;1.04;78.95;98975.47;7387415;19;19919;-71
2023/03/04 08:18:32;;;;;;;;;;;;;;;1.12;78.46;98975.06;7385209;19;20255;-71
2023/03/04 08:20:59;;;;;;;;;;;;;;;1.28;78.62;98975.91;7381047;19;19961;-71
2023/03/04 08:23:26;;;;;;;;;;;;;;;1.38;77.96;98978.88;7383604;19;19915;-71
2023/03/04 08:25:52;;;;;;;;;;;;;;;1.12;77.70;98977.66;7382050;19;19990;-71
2023/03/04 08:28:19;;;;;;;;;;;;;;;1.19;77.74;98973.81;7384697;19;19922;-71
2023/03/04 08:30:50;;;;;;;;;;;;;;;1.12;77.59;98977.66;7383299;19;19922;-72
2023/03/04 08:33:17;;;;;;;;;;;;;;;1.15;78.06;98977.50;7389981;19;19933;-70
2023/03/04 08:35:44;;;;;;;;;;;;;;;1.25;77.87;98981.28;7381251;19;19919;-71
2023/03/04 08:38:10;;;;;;;;;;;;;;;1.07;77.86;98982.28;7381485;19;19915;-70
2023/03/04 08:40:37;;;;;;;;;;;;;;;1.08;78.20;98982.22;7384876;19;19962;-70
2023/03/04 08:43:03;;;;;;;;;;;;;;;1.08;78.48;98984.81;7385369;19;19922;-71
2023/03/04 08:45:30;;;;;;;;;;;;;;;1.04;78.31;98978.06;7382822;19;19942;-71
2023/03/04 08:47:56;;;;;;;;;;;;;;;0.61;79.28;98984.69;7383883;19;19915;-71
2023/03/04 08:50:23;;;;;;;;;;;;;;;0.83;79.59;98976.59;7387638;19;20563;-70
2023/03/04 08:52:50;;;;;;;;;;;;;;;0.92;79.41;98980.47;7383764;19;19919;-71
2023/03/04 08:55:16;;;;;;;;;;;;;;;0.85;79.27;98986.00;7383180;19;19915;-71
2023/03/04 08:57:43;;;;;;;;;;;;;;;0.82;79.51;98983.56;7384700;19;19923;-71
2023/03/04 09:00:11;;;;;;;;;;;;;;;1.06;79.09;98978.00;7385935;19;19918;-71
2023/03/04 09:02:38;;;;;;;;;;;;;;;1.28;78.45;98986.34;7384933;19;20021;-71
2023/03/04 09:05:05;;;;;;;;;;;;;;;1.26;77.85;98983.00;7384796;19;19933;-71
2023/03/04 09:07:31;;;;;;;;;;;;;;;1.39;78.05;98985.75;7389044;19;19960;-72
2023/03/04 09:09:58;;;;;;;;;;;;;;;1.68;77.75;98983.31;7385998;19;19918;-72
2023/03/04 09:12:25;;;;;;;;;;;;;;;1.83;77.28;98992.06;7389357;19;19936;-71
2023/03/04 09:14:51;;;;;;;;;;;;;;;1.75;77.09;98987.28;7381785;19;20384;-71
2023/03/04 09:17:35;;;;;;;;;;;;;;;1.81;77.02;98988.69;7381989;19;19982;-72
2023/03/04 09:20:03;;;;;;;;;;;;;;;2.02;76.14;98991.88;7386964;19;19926;-71
2023/03/04 09:22:30;;;;;;;;;;;;;;;2.11;76.14;98992.22;7386419;19;19926;-71
2023/03/04 09:24:56;;;;;;;;;;;;;;;2.28;75.68;98990.41;7380908;19;19963;-71
2023/03/04 09:27:23;;;;;;;;;;;;;;;2.33;75.63;98980.53;7387165;19;19914;-71
2023/03/04 09:29:49;;;;;;;;;;;;;;;2.34;75.35;98992.63;7385413;19;19926;-71
2023/03/04 09:32:16;;;;;;;;;;;;;;;2.35;75.09;98991.72;7387473;19;19922;-71
2023/03/04 09:34:43;;;;;;;;;;;;;;;2.40;74.74;98994.91;7382769;19;19922;-71
2023/03/04 09:37:09;;;;;;;;;;;;;;;2.33;74.49;98993.59;7385097;19;19926;-71
2023/03/04 09:39:36;;;;;;;;;;;;;;;2.12;75.35;98987.81;7381179;19;20620;-70
2023/03/04 09:42:03;;;;;;;;;;;;;;;2.28;75.15;98985.16;7382192;19;19957;-71
2023/03/04 09:44:31;;;;;;;;;;;;;;;2.43;75.09;98986.91;7383119;19;20873;-71
2023/03/04 09:46:58;;;;;;;;;;;;;;;2.20;74.27;98981.22;7381850;19;19918;-71
2023/03/04 09:49:24;;;;;;;;;;;;;;;2.33;74.33;98985.75;7381698;19;19915;-72
2023/03/04 09:52:18;;;;;;;;;;;;;;;2.34;74.20;98979.59;7375388;19;19931;-71
2023/03/04 09:55:03;;;;;;;;;;;;;;;2.38;74.27;98991.53;7378260;19;19935;-71
2023/03/04 09:57:44;;;;;;;;;;;;;;;2.50;74.47;98993.44;7386344;19;19941;-71
2023/03/04 10:00:11;;;;;;;;;;;;;;;2.47;73.46;98996.22;7385254;19;21036;-71
2023/03/04 10:02:43;;;;;;;;;;;;;;;2.63;73.74;98990.94;7385223;19;19959;-71
2023/03/04 10:05:12;;;;;;;;;;;;;;;2.79;73.43;98988.25;7382194;19;19914;-71
2023/03/04 10:07:39;;;;;;;;;;;;;;;2.94;73.04;98991.72;7378998;19;19942;-71
2023/03/04 10:10:06;;;;;;;;;;;;;;;3.14;72.64;98990.53;7383948;19;19918;-71
2023/03/04 10:12:33;;;;;;;;;;;;;;;3.28;72.26;98990.50;7381525;19;19934;-71
2023/03/04 10:15:03;;;;;;;;;;;;;;;3.41;72.13;98985.38;7376295;19;20347;-71
2023/03/04 10:17:42;;;;;;;;;;;;;;;3.20;71.14;98977.06;7383641;19;20609;-71
2023/03/04 10:20:20;;;;;;;;;;;;;;;3.37;70.96;98976.00;7378512;19;20097;-71
2023/03/04 10:22:47;;;;;;;;;;;;;;;3.37;70.04;98979.50;7378135;19;19928;-72
2023/03/04 10:25:23;;;;;;;;;;;;;;;3.43;69.63;98976.50;7379807;19;19927;-72
2023/03/04 10:28:01;;;;;;;;;;;;;;;3.54;69.20;98969.75;7382452;19;19923;-72
2023/03/04 10:30:36;;;;;;;;;;;;;;;3.55;68.88;98969.63;7387989;19;19942;-72
2023/03/04 10:33:13;;;;;;;;;;;;;;;3.65;68.83;98964.66;7387749;19;19928;-71
2023/03/04 10:35:42;;;;;;;;;;;;;;;3.58;68.74;98968.59;7385835;19;20354;-71
2023/03/04 10:38:09;;;;;;;;;;;;;;;3.80;68.62;98966.31;7388334;19;19918;-72
2023/03/04 10:40:36;;;;;;;;;;;;;;;3.62;67.44;98964.88;7390105;19;19926;-72
2023/03/04 10:43:06;;;;;;;;;;;;;;;3.59;67.86;98968.50;7386127;19;19941;-71
2023/03/04 10:45:37;;;;;;;;;;;;;;;3.39;67.72;98963.69;7385398;19;19940;-71
2023/03/04 10:48:04;;;;;;;;;;;;;;;3.56;68.32;98963.47;7390266;19;19945;-71
2023/03/04 10:50:31;;;;;;;;;;;;;;;3.07;68.15;98961.28;7389751;19;19919;-71
2023/03/04 10:52:58;;;;;;;;;;;;;;;3.23;69.05;98961.19;7384439;19;20308;-71
2023/03/04 10:55:28;;;;;;;;;;;;;;;3.42;68.11;98953.91;7385612;19;19919;-71
2023/03/04 10:58:04;;;;;;;;;;;;;;;3.42;67.33;98946.06;7385205;19;19952;-71
2023/03/04 11:00:35;;;;;;;;;;;;;;;3.19;67.84;98951.88;7384450;19;19914;-71
2023/03/04 11:03:21;;;;;;;;;;;;;;;3.47;67.59;98946.56;7388678;19;19926;-71
2023/03/04 11:05:47;;;;;;;;;;;;;;;3.53;67.25;98934.91;7383984;19;20533;-70
2023/03/04 11:08:15;;;;;;;;;;;;;;;3.63;66.81;98938.59;7387208;19;19951;-70
2023/03/04 11:10:42;;;;;;;;;;;;;;;3.22;66.91;98941.22;7386683;19;19941;-70
2023/03/04 11:13:13;;;;;;;;;;;;;;;3.51;66.43;98939.38;7390790;19;19914;-70
2023/03/04 11:15:53;;;;;;;;;;;;;;;3.60;65.03;98938.78;7382114;19;19956;-70
2023/03/04 11:18:27;;;;;;;;;;;;;;;3.78;65.45;98934.16;7388795;19;20378;-70
2023/03/04 11:20:54;;;;;;;;;;;;;;;3.67;66.11;98934.84;7378667;19;19915;-70
2023/03/04 11:23:24;;;;;;;;;;;;;;;3.44;65.98;98930.25;7387952;19;20347;-71
2023/03/04 11:25:58;;;;;;;;;;;;;;;3.54;65.84;98931.34;7381549;19;19922;-71
2023/03/04 11:28:25;;;;;;;;;;;;;;;3.50;65.54;98925.47;7385315;19;19915;-70
2023/03/04 11:30:59;;;;;;;;;;;;;;;3.63;65.19;98929.91;7381528;19;20190;-71
2023/03/04 11:33:27;;;;;;;;;;;;;;;3.80;65.68;98924.44;7384142;19;19938;-72
2023/03/04 11:36:05;;;;;;;;;;;;;;;3.91;64.34;98919.31;7382605;19;19930;-72
2023/03/04 11:38:34;;;;;;;;;;;;;;;4.02;63.67;98931.72;7386868;19;19918;-72
2023/03/04 11:41:03;;;;;;;;;;;;;;;3.44;64.06;98922.41;7379931;19;22393;-72
2023/03/04 11:43:36;;;;;;;;;;;;;;;3.55;65.24;98924.31;7387999;19;20343;-71
2023/03/04 11:46:24;;;;;;;;;;;;;;;3.50;64.86;98915.00;7381602;19;19914;-72
2023/03/04 11:49:10;;;;;;;;;;;;;;;3.61;64.39;98923.94;7385303;19;19914;-72
2023/03/04 11:51:39;;;;;;;;;;;;;;;3.27;65.18;98924.31;7387723;19;19922;-72
2023/03/04 11:54:14;;;;;;;;;;;;;;;3.11;65.41;98922.72;7382156;19;19945;-72
2023/03/04 11:56:42;;;;;;;;;;;;;;;3.14;65.66;98918.16;7389867;19;20705;-72
2023/03/04 11:59:19;;;;;;;;;;;;;;;2.90;66.25;98912.69;7385341;19;19915;-71
2023/03/04 12:02:00;;;;;;;;;;;;;;;2.93;66.46;98914.28;7383607;19;20282;-72
2023/03/04 12:04:30;;;;;;;;;;;;;;;3.13;65.96;98913.03;7386120;19;19937;-72
2023/03/04 12:07:01;;;;;;;;;;;;;;;2.77;66.47;98903.91;7385255;19;19925;-72
2023/03/04 12:09:40;;;;;;;;;;;;;;;2.97;66.81;98897.44;7386069;19;20527;-72
2023/03/04 12:12:25;;;;;;;;;;;;;;;3.13;66.96;98889.50;7383488;19;19998;-72
2023/03/04 12:15:06;;;;;;;;;;;;;;;3.27;67.02;98886.88;7382186;19;19918;-71
2023/03/04 12:17:39;;;;;;;;;;;;;;;3.28;66.54;98883.28;7390506;19;20003;-72
2023/03/04 12:20:09;;;;;;;;;;;;;;;3.25;66.74;98883.50;7384177;19;19918;-72
2023/03/04 12:22:35;;;;;;;;;;;;;;;3.25;67.14;98880.88;7387680;19;19915;-72
2023/03/04 12:25:22;;;;;;;;;;;;;;;3.10;67.11;98877.44;7382384;19;20246;-72
2023/03/04 12:28:08;;;;;;;;;;;;;;;3.33;66.67;98876.00;7383167;19;20780;-71
2023/03/04 12:30:34;;;;;;;;;;;;;;;3.27;66.20;98866.78;7387599;19;19922;-72
2023/03/04 12:33:30;;;;;;;;;;;;;;;3.27;66.43;98871.16;7383672;19;19914;-72
2023/03/04 12:36:16;;;;;;;;;;;;;;;3.35;65.73;98863.66;7380625;19;20014;-72
2023/03/04 12:38:55;;;;;;;;;;;;;;;3.17;66.03;98860.44;7382627;19;19937;-71
2023/03/04 12:41:27;;;;;;;;;;;;;;;3.29;66.04;98858.81;7384904;19;19926;-72
2023/03/04 12:43:59;;;;;;;;;;;;;;;3.13;66.39;98853.72;7381892;19;20614;-72
2023/03/04 12:46:31;;;;;;;;;;;;;;;3.10;67.03;98851.31;7385725;19;20257;-71
2023/03/04 12:49:16;;;;;;;;;;;;;;;3.12;66.89;98848.59;7380878;19;20329;-71
2023/03/04 12:52:03;;;;;;;;;;;;;;;3.19;66.30;98842.06;7384854;19;20538;-71
2023/03/04 12:54:39;;;;;;;;;;;;;;;3.33;65.56;98841.16;7377448;19;19938;-72
2023/03/04 12:57:11;;;;;;;;;;;;;;;3.17;65.20;98841.31;7381695;19;19911;-71
2023/03/04 12:59:43;;;;;;;;;;;;;;;3.08;66.25;98838.34;7383573;19;19922;-72